Potsdam, NY (13676)

12:29 PM EDT on September 02, 2015 (GMT -0400)
NonFedAWOS | | Change Station
CLOSE
Current Station
Personal Weather Station
Location: Potsdam, NY
Elevation: 472 ft
Nearby Weather Stations

Elev 472 ft 44.68 °N, 74.95 °W | Updated 16 minutes ago

Overcast
Overcast
72 °F
Feels Like 72 °F
N
7
Wind Variable Wind from WSW
Gusts 0.0 mph

Today
High -- | Low -- °F
--% Chance of Precip.
Yesterday
High -- | Low -- °F
Precip. -- in
6:23 AM 7:35 PM
Waning Gibbous, 79% visible
Pressure 30.00 in
Visibility 6.0 miles
Clouds Overcast 1000 ft
Dew Point 72 °F
Humidity 100%
Rainfall in
Snow Depth Not available.
UV 2 out of 12
Pollen 9.10 out of 12
Air Quality Not available.
Flu Activity Not available.
METAR KMSS 021553Z AUTO 28006KT 6SM HZ OVC010 23/19 A3000 RMK AO2 SLP157 T02280194
Pressure 30.00 in
Visibility 6.0 miles
Clouds Overcast 1000 ft
Dew Point 72 °F
Humidity 100%
Rainfall in
Snow Depth Not available.
UV 2 out of 12
Pollen 9.10 out of 12
Air Quality Not available.
Flu Activity Not available.
METAR KMSS 021553Z AUTO 28006KT 6SM HZ OVC010 23/19 A3000 RMK AO2 SLP157 T02280194

10-Day Weather Forecast

×

Almanac

Astronomy

Sep. 02, 2015 Rise Set
Actual Time
Civil Twilight
Nautical Twilight
Astronomical Twilight
Moon
Length of Visible Light
Length of Day
Tomorrow will be .
, % of the Moon is Illuminated

Today's Extremes

State Highs State Lows

Community

WunderPhotos

Upload Photos

1,851,777 photos uploaded!

WunderBlogs® & News

Nearby

Air Quality

  Air Quality AQ Index Pollutant
Not available.

Snow Depth

Station Depth Elevation

Earthquake Activity

City Distance Mag. Time & Date
Minimum magnitude displayed is 2.5.

Coastal Water Temperatures

Place Temperature

Stations

Nearby Weather Stations

Station Location Temp. Windchill Dew Point Humidity Wind Precip. Elev Updated Type